Terminal Aerodrome Forecast
Issued by NWS

Home | Current Version | Previous Version | Text Only | Print | Product List | Glossary Off
Versions: 1 2 3 4 5 6 7 8 9 10 11 12 13 14 15 16 17 18 19 20 21 22 23

242
FTUS43 KTOP 250923 AAC
TAFMHK
TAF AMD
KMHK 250923Z 2509/2606 04006KT P6SM VCTS SCT080CB BKN250
      TEMPO 2509/2511 4SM TSRA BR BKN050CB
     FM251200 05005KT P6SM BKN250
     FM251400 08008KT P6SM SCT250=

USA.gov is the U.S. government's official web portal to all federal, state and local government web resources and services.